Biotrans — JWPN — position and weather

sailwx.info

Track history (hours):
 
Tides and Currents Weather Stations Pressure Air Temp Water Temp Dewpoint Dewpoint Depression Visibility Wind Speed Wind Dir Waves Ship Positions

Biotrans

Last reported at 2017-Feb-23 11:33 UTC. Time now 2017-Feb-23 11:52 UTC.
Position N 61°59' E 005°08'.

Length 55 m; draft 5.5 m.

Type: Cargo ship. MMSI: 259260000.

Date/timePositionNaut miles runAvg speedWind from/ knotsBaromVisibWave heightAir tempDewpointWater temp
2017-Feb-23 11:33N 61°59' E 005°08'0 0.0
2017-Feb-23 10:33N 61°59' E 005°08'0 0.0
2017-Feb-23 09:33N 61°59' E 005°08'0 0.0
2017-Feb-23 08:32N 61°59' E 005°08'0 0.0
2017-Feb-23 07:33N 61°59' E 005°08'0 0.0
2017-Feb-23 06:33N 61°59' E 005°08'0 0.0
2017-Feb-23 05:33N 61°59' E 005°08'0 0.0
2017-Feb-23 04:33N 61°59' E 005°08'0 0.0
2017-Feb-23 03:33N 61°59' E 005°08'0 0.0
2017-Feb-23 02:32N 61°59' E 005°08'0 0.0
2017-Feb-23 01:33N 61°59' E 005°08'0 0.0
2017-Feb-23 00:33N 61°59' E 005°08'0 0.0
2017-Feb-22 23:33N 61°59' E 005°08'0 0.0
2017-Feb-22 22:33N 61°59' E 005°08'0 0.0
2017-Feb-22 21:33N 61°59' E 005°08'0 0.0
2017-Feb-22 20:33N 61°59' E 005°08'4 4.0
2017-Feb-22 19:33N 62°03' E 005°08'8 7.8
2017-Feb-22 18:33N 62°10' E 005°02'7 7.2
2017-Feb-22 17:33N 62°15' E 005°13'8 7.9
2017-Feb-22 16:33N 62°18' E 005°29'7 7.5
2017-Feb-22 15:33N 62°19' E 005°44'8 7.6
2017-Feb-22 14:33N 62°26' E 005°54'8 8.1
2017-Feb-22 13:33N 62°30' E 006°09'8 8.2
2017-Feb-22 12:33N 62°37' E 006°18'8 8.0
2017-Feb-22 11:32N 62°43' E 006°29'8 8.0
2017-Feb-22 10:33N 62°50' E 006°38'9 8.5
2017-Feb-22 09:33N 62°57' E 006°49'8 8.0
2017-Feb-22 08:32N 63°01' E 007°05'8 8.0
2017-Feb-22 07:33N 63°04' E 007°21'8 8.1
2017-Feb-22 06:33N 63°08' E 007°36'8 8.1
2017-Feb-22 05:33N 63°13' E 007°50'2 2.3
2017-Feb-22 04:33N 63°15' E 007°51'1 0.9
2017-Feb-22 03:34N 63°15' E 007°52'8 7.6
2017-Feb-22 02:33N 63°17' E 008°09'7 6.9
2017-Feb-22 01:33N 63°23' E 008°17'2 2.2
2017-Feb-22 00:33N 63°24' E 008°20'9 8.9
2017-Feb-21 23:33N 63°26' E 008°40'9 9.1
2017-Feb-21 22:33N 63°29' E 008°59'8 8.1
2017-Feb-21 21:33N 63°32' E 009°15'8 7.7
2017-Feb-21 20:33N 63°38' E 009°28'7 6.8
2017-Feb-21 19:33N 63°44' E 009°34'5 5.5
2017-Feb-21 18:33N 63°46' E 009°46'0 0.0
2017-Feb-21 17:33N 63°46' E 009°46'0 0.0
2017-Feb-21 16:33N 63°46' E 009°46'0 0.0
2017-Feb-21 15:33N 63°46' E 009°46'0 0.0
2017-Feb-21 14:33N 63°46' E 009°46'0 0.0
2017-Feb-21 13:33N 63°46' E 009°46'0 0.0
2017-Feb-21 12:33N 63°46' E 009°46'0 0.0
2017-Feb-21 11:33N 63°46' E 009°46'0 0.0
2017-Feb-21 10:32N 63°46' E 009°46'0 0.0
2017-Feb-21 09:32N 63°46' E 009°46'0 0.0
2017-Feb-21 08:33N 63°46' E 009°46'0 0.0
2017-Feb-21 07:33N 63°46' E 009°46'0 0.0
2017-Feb-21 06:33N 63°46' E 009°46'0 0.0
2017-Feb-21 05:33N 63°46' E 009°46'0 0.0
2017-Feb-21 04:33N 63°46' E 009°46'0 0.0
2017-Feb-21 03:33N 63°46' E 009°46'0 0.0
2017-Feb-21 02:33N 63°46' E 009°46'0 0.0
2017-Feb-21 01:33N 63°46' E 009°46'0 0.0
2017-Feb-21 00:33N 63°46' E 009°46'0 0.0
2017-Feb-20 23:33N 63°46' E 009°46'0 0.0
2017-Feb-20 22:33N 63°46' E 009°46'0 0.0
2017-Feb-20 21:33N 63°46' E 009°46'0 0.0
2017-Feb-20 20:33N 63°46' E 009°46'0 0.0
2017-Feb-20 19:33N 63°46' E 009°46'0 0.0
2017-Feb-20 18:33N 63°46' E 009°46'0 0.0
2017-Feb-20 17:33N 63°46' E 009°46'0 0.0
2017-Feb-20 16:33N 63°46' E 009°46'0 0.3
2017-Feb-20 15:33N 63°46' E 009°45'0 0.0
2017-Feb-20 14:33N 63°46' E 009°45'0 0.0
2017-Feb-20 13:33N 63°46' E 009°45'0 0.1
2017-Feb-20 12:33N 63°46' E 009°45'0 0.1
2017-Feb-20 11:33N 63°46' E 009°45'0 0.2
2017-Feb-20 10:33N 63°46' E 009°46'0 0.0
2017-Feb-20 09:32N 63°46' E 009°46'0 0.0
2017-Feb-20 08:33N 63°46' E 009°46'0 0.0
2017-Feb-20 07:33N 63°46' E 009°46'0 0.3
2017-Feb-20 06:33N 63°46' E 009°45'8 7.6
2017-Feb-20 05:33N 63°42' E 009°30'9 8.5
2017-Feb-20 04:33N 63°34' E 009°22'1010.0
2017-Feb-20 03:33N 63°29' E 009°02'9 9.2
2017-Feb-20 02:32N 63°26' E 008°43'9 9.2
2017-Feb-20 01:33N 63°22' E 008°25'9 9.4
2017-Feb-20 00:33N 63°16' E 008°08'6 5.7
2017-Feb-19 23:33N 63°15' E 007°56'0 0.0
2017-Feb-19 22:33N 63°15' E 007°56'2 2.1
2017-Feb-19 21:34N 63°15' E 007°51'0 0.0
2017-Feb-19 20:33N 63°15' E 007°51'3 3.1
2017-Feb-19 19:33N 63°14' E 007°58'8 7.6
2017-Feb-19 18:33N 63°18' E 008°13'8 7.6
2017-Feb-19 17:33N 63°23' E 008°26'8 7.6
2017-Feb-19 16:33N 63°26' E 008°41'7 7.2
2017-Feb-19 15:33N 63°28' E 008°56'7 6.7
2017-Feb-19 14:33N 63°31' E 009°10'7 7.2
2017-Feb-19 13:33N 63°37' E 009°19'1 1.4
2017-Feb-19 12:33N 63°38' E 009°20'0 0.0
2017-Feb-19 11:34N 63°38' E 009°20'0 0.0
2017-Feb-19 10:33N 63°38' E 009°20'0 0.0
2017-Feb-19 09:33N 63°38' E 009°20'0 0.0
2017-Feb-19 08:33N 63°38' E 009°20'1 1.3
2017-Feb-19 07:33N 63°38' E 009°23'6 6.3
2017-Feb-19 06:33N 63°43' E 009°31'8 7.7
2017-Feb-19 05:33N 63°50' E 009°38'7 6.9
2017-Feb-19 04:33N 63°54' E 009°51'1 1.0
2017-Feb-19 03:33N 63°53' E 009°52'0 0.0
2017-Feb-19 02:33N 63°53' E 009°52'0 0.0
2017-Feb-19 01:32N 63°53' E 009°52'0 0.0
2017-Feb-19 00:33N 63°53' E 009°52'0 0.0
2017-Feb-18 23:32N 63°53' E 009°52'0 0.0
2017-Feb-18 22:33N 63°53' E 009°52'0 0.0
2017-Feb-18 21:33N 63°53' E 009°52'0 0.0
2017-Feb-18 20:33N 63°53' E 009°52'0 0.0
2017-Feb-18 19:33N 63°53' E 009°52'0 0.0
2017-Feb-18 18:33N 63°53' E 009°52'0 0.0
2017-Feb-18 17:32N 63°53' E 009°52'0 0.0
2017-Feb-18 16:33N 63°53' E 009°52'0 0.0
2017-Feb-18 15:33N 63°53' E 009°52'0 0.0
2017-Feb-18 14:33N 63°53' E 009°52'0 0.0
2017-Feb-18 13:33N 63°53' E 009°52'0 0.0
2017-Feb-18 12:33N 63°53' E 009°52'6 6.2
2017-Feb-18 11:33N 63°51' E 009°39'7 7.2
2017-Feb-18 10:33N 63°44' E 009°35'3 2.9
2017-Feb-18 09:33N 63°42' E 009°31'8 7.9
2017-Feb-18 08:32N 63°35' E 009°24'9 9.2
2017-Feb-18 07:33N 63°30' E 009°06'9 9.0
2017-Feb-18 06:32N 63°27' E 008°47'9 9.1
2017-Feb-18 05:32N 63°23' E 008°29'9 9.1
2017-Feb-18 04:33N 63°18' E 008°13'8 7.9
2017-Feb-18 03:33N 63°15' E 007°56'5 4.9
2017-Feb-18 02:33N 63°16' E 008°07'7 6.8
2017-Feb-18 01:33N 63°21' E 008°18'2 1.5
2017-Feb-18 00:33N 63°22' E 008°15'2 1.9
2017-Feb-17 23:33N 63°24' E 008°13'5 5.3
2017-Feb-17 22:32N 63°29' E 008°13'7 7.2
2017-Feb-17 21:33N 63°36' E 008°17'6 5.8
2017-Feb-17 20:33N 63°36' E 008°30'0 0.4
2017-Feb-17 19:33N 63°36' E 008°31'1 1.2
2017-Feb-17 18:33N 63°36' E 008°29'0 0.2
2017-Feb-17 17:33N 63°37' E 008°30'5 5.3
2017-Feb-17 16:32N 63°40' E 008°39'8 7.8
2017-Feb-17 15:33N 63°43' E 008°55'9 8.5
2017-Feb-17 14:32N 63°51' E 009°03'8 8.4
2017-Feb-17 13:33N 63°58' E 009°09'2 1.6
2017-Feb-17 12:33N 63°60' E 009°07'2 2.2
2017-Feb-17 11:33N 63°59' E 009°12'8 7.6
2017-Feb-17 10:33N 64°01' E 009°29'8 7.8
2017-Feb-17 09:33N 64°03' E 009°46'8 7.5
2017-Feb-17 08:33N 64°08' E 009°59'1 1.5
2017-Feb-17 07:33N 64°09' E 010°01'2 2.5
2017-Feb-17 06:33N 64°10' E 010°06'3 3.3
2017-Feb-17 05:33N 64°07' E 010°02'4 3.9
2017-Feb-17 04:33N 64°05' E 009°55'4 3.9
2017-Feb-17 03:33N 64°02' E 009°48'4 3.6
2017-Feb-17 02:33N 63°59' E 009°48'3 3.0
2017-Feb-17 01:33N 63°57' E 009°54'4 3.9
2017-Feb-17 00:32N 63°53' E 009°52'0 0.0
2017-Feb-16 23:33N 63°53' E 009°52'0 0.0
2017-Feb-16 22:33N 63°53' E 009°52'0 0.0
2017-Feb-16 21:33N 63°53' E 009°52'1 1.2
2017-Feb-16 20:33N 63°54' E 009°50'8 8.0
2017-Feb-16 19:33N 63°49' E 009°35'4 4.5
2017-Feb-16 18:33N 63°45' E 009°42'2 1.8
2017-Feb-16 17:33N 63°46' E 009°46'0 0.0
2017-Feb-16 16:33N 63°46' E 009°46'0 0.0
2017-Feb-16 15:33N 63°46' E 009°46'0 0.0
2017-Feb-16 14:33N 63°46' E 009°46'0 0.0
2017-Feb-16 13:33N 63°46' E 009°46'0 0.0
2017-Feb-16 12:32N 63°46' E 009°46'0 0.0
2017-Feb-16 11:33N 63°46' E 009°46'0 0.0
2017-Feb-16 10:33N 63°46' E 009°46'0 0.4
2017-Feb-16 09:33N 63°46' E 009°45'5 5.0
2017-Feb-16 08:33N 63°48' E 009°34'8 8.1
2017-Feb-16 07:33N 63°54' E 009°46'8 8.1
2017-Feb-16 06:33N 64°02' E 009°48'8 8.1
2017-Feb-16 05:33N 64°07' E 010°03'8 8.0
2017-Feb-16 04:33N 64°14' E 010°14'8 7.5
2017-Feb-16 03:33N 64°19' E 010°26'7 7.4
2017-Feb-16 02:33N 64°27' E 010°27'7 7.0
2017-Feb-16 01:33N 64°32' E 010°36'8 7.7
2017-Feb-16 00:33N 64°39' E 010°46'8 7.8
2017-Feb-15 23:33N 64°45' E 010°59'8 7.7
2017-Feb-15 22:33N 64°50' E 011°11'7 6.5
2017-Feb-15 21:33N 64°55' E 011°22'8 7.5
2017-Feb-15 20:33N 64°59' E 011°36'9 8.5
2017-Feb-15 19:32N 65°06' E 011°48'9 9.4
2017-Feb-15 18:33N 65°15' E 011°56'8 7.8
2017-Feb-15 17:33N 65°23' E 011°60'8 7.8
2017-Feb-15 16:33N 65°30' E 012°01'9 8.9
2017-Feb-15 15:31N 65°38' E 012°13'9 8.8
2017-Feb-15 14:33N 65°46' E 012°19'9 8.4
2017-Feb-15 13:33N 65°55' E 012°22'6 5.5
2017-Feb-15 12:33N 65°57' E 012°10'4 4.2
2017-Feb-15 11:33N 66°01' E 012°14'1 1.0
2017-Feb-15 10:33N 66°00' E 012°16'0 0.0
2017-Feb-15 09:32N 66°00' E 012°16'4 3.9
2017-Feb-15 08:33N 66°02' E 012°07'7 6.9
2017-Feb-15 07:33N 65°55' E 012°15'9 9.2
2017-Feb-15 06:33N 66°01' E 012°33'9 9.0
2017-Feb-15 05:33N 66°08' E 012°47'9 8.7
2017-Feb-15 04:33N 66°16' E 012°55'9 8.8
2017-Feb-15 03:33N 66°25' E 012°59'8 7.9
2017-Feb-15 02:33N 66°33' E 013°00'8 8.3
2017-Feb-15 01:33N 66°40' E 013°08'9 8.5
2017-Feb-15 00:33N 66°48' E 013°15'8 8.2
2017-Feb-14 23:33N 66°55' E 013°28'7 7.2
2017-Feb-14 22:33N 67°00' E 013°40'9 8.8
2017-Feb-14 21:33N 67°06' E 013°58'9 8.7
2017-Feb-14 20:33N 67°13' E 014°10'6 6.2
2017-Feb-14 19:33N 67°17' E 014°23'0 0.0
2017-Feb-14 18:33N 67°17' E 014°23'0 0.0
2017-Feb-14 17:33N 67°17' E 014°23'0 0.0
2017-Feb-14 16:33N 67°17' E 014°23'0 0.0
2017-Feb-14 15:33N 67°17' E 014°23'0 0.0
2017-Feb-14 14:33N 67°17' E 014°23'0 0.4
2017-Feb-14 13:33N 67°17' E 014°22'4 3.6
2017-Feb-14 12:33N 67°21' E 014°26'5 4.8
2017-Feb-14 11:33N 67°25' E 014°32'8 7.9
2017-Feb-14 10:33N 67°32' E 014°43'9 8.5
2017-Feb-14 09:32N 67°36' E 015°02'8 7.7
2017-Feb-14 08:33N 67°32' E 015°18'1 0.5
2017-Feb-14 07:33N 67°32' E 015°17'5 5.2
2017-Feb-14 06:33N 67°37' E 015°21'1 0.8
2017-Feb-14 05:33N 67°36' E 015°22'3 3.0
2017-Feb-14 04:33N 67°38' E 015°16'3 3.0
2017-Feb-14 03:33N 67°37' E 015°08'4 4.5
2017-Feb-14 02:33N 67°37' E 014°56'5 4.5
2017-Feb-14 01:33N 67°38' E 014°44'5 5.3
2017-Feb-14 00:33N 67°40' E 014°32'7 7.2
2017-Feb-13 23:33N 67°47' E 014°31'7 6.5
2017-Feb-13 22:33N 67°52' E 014°43'7 7.4
2017-Feb-13 21:33N 67°55' E 015°01'6 6.3
2017-Feb-13 20:33N 67°55' E 015°18'6 5.7
2017-Feb-13 19:33N 68°01' E 015°20'0 0.0
2017-Feb-13 18:33N 68°01' E 015°20'1 1.1
2017-Feb-13 17:33N 68°01' E 015°17'9 8.7
2017-Feb-13 16:33N 68°07' E 015°01'8 8.2
2017-Feb-13 15:33N 68°15' E 014°57'8 8.3
2017-Feb-13 14:33N 68°23' E 015°05'7 6.8
2017-Feb-13 13:33N 68°29' E 015°13'7 6.7
2017-Feb-13 12:33N 68°36' E 015°14'  
Track history (hours):
 
Tides and Currents Weather Stations Pressure Air Temp Water Temp Dewpoint Dewpoint Depression Visibility Wind Speed Wind Dir Waves Ship Positions

Biotrans

Last reported at 2017-Feb-23 11:33 UTC. Time now 2017-Feb-23 11:52 UTC.
Position N 61°59' E 005°08'.

Length 55 m; draft 5.5 m.

Type: Cargo ship. MMSI: 259260000.

Date/timePositionNaut miles runAvg speedWind from/ knotsBaromVisibWave heightAir tempDewpointWater temp
2017-Feb-23 11:33N 61°59' E 005°08'0 0.0
2017-Feb-23 10:33N 61°59' E 005°08'0 0.0
2017-Feb-23 09:33N 61°59' E 005°08'0 0.0
2017-Feb-23 08:32N 61°59' E 005°08'0 0.0
2017-Feb-23 07:33N 61°59' E 005°08'0 0.0
2017-Feb-23 06:33N 61°59' E 005°08'0 0.0
2017-Feb-23 05:33N 61°59' E 005°08'0 0.0
2017-Feb-23 04:33N 61°59' E 005°08'0 0.0
2017-Feb-23 03:33N 61°59' E 005°08'0 0.0
2017-Feb-23 02:32N 61°59' E 005°08'0 0.0
2017-Feb-23 01:33N 61°59' E 005°08'0 0.0
2017-Feb-23 00:33N 61°59' E 005°08'0 0.0
2017-Feb-22 23:33N 61°59' E 005°08'0 0.0
2017-Feb-22 22:33N 61°59' E 005°08'0 0.0
2017-Feb-22 21:33N 61°59' E 005°08'0 0.0
2017-Feb-22 20:33N 61°59' E 005°08'4 4.0
2017-Feb-22 19:33N 62°03' E 005°08'8 7.8
2017-Feb-22 18:33N 62°10' E 005°02'7 7.2
2017-Feb-22 17:33N 62°15' E 005°13'8 7.9
2017-Feb-22 16:33N 62°18' E 005°29'7 7.5
2017-Feb-22 15:33N 62°19' E 005°44'8 7.6
2017-Feb-22 14:33N 62°26' E 005°54'8 8.1
2017-Feb-22 13:33N 62°30' E 006°09'8 8.2
2017-Feb-22 12:33N 62°37' E 006°18'8 8.0
2017-Feb-22 11:32N 62°43' E 006°29'8 8.0
2017-Feb-22 10:33N 62°50' E 006°38'9 8.5
2017-Feb-22 09:33N 62°57' E 006°49'8 8.0
2017-Feb-22 08:32N 63°01' E 007°05'8 8.0
2017-Feb-22 07:33N 63°04' E 007°21'8 8.1
2017-Feb-22 06:33N 63°08' E 007°36'8 8.1
2017-Feb-22 05:33N 63°13' E 007°50'2 2.3
2017-Feb-22 04:33N 63°15' E 007°51'1 0.9
2017-Feb-22 03:34N 63°15' E 007°52'8 7.6
2017-Feb-22 02:33N 63°17' E 008°09'7 6.9
2017-Feb-22 01:33N 63°23' E 008°17'2 2.2
2017-Feb-22 00:33N 63°24' E 008°20'9 8.9
2017-Feb-21 23:33N 63°26' E 008°40'9 9.1
2017-Feb-21 22:33N 63°29' E 008°59'8 8.1
2017-Feb-21 21:33N 63°32' E 009°15'8 7.7
2017-Feb-21 20:33N 63°38' E 009°28'7 6.8
2017-Feb-21 19:33N 63°44' E 009°34'5 5.5
2017-Feb-21 18:33N 63°46' E 009°46'0 0.0
2017-Feb-21 17:33N 63°46' E 009°46'0 0.0
2017-Feb-21 16:33N 63°46' E 009°46'0 0.0
2017-Feb-21 15:33N 63°46' E 009°46'0 0.0
2017-Feb-21 14:33N 63°46' E 009°46'0 0.0
2017-Feb-21 13:33N 63°46' E 009°46'0 0.0
2017-Feb-21 12:33N 63°46' E 009°46'0 0.0
2017-Feb-21 11:33N 63°46' E 009°46'0 0.0
2017-Feb-21 10:32N 63°46' E 009°46'0 0.0
2017-Feb-21 09:32N 63°46' E 009°46'0 0.0
2017-Feb-21 08:33N 63°46' E 009°46'0 0.0
2017-Feb-21 07:33N 63°46' E 009°46'0 0.0
2017-Feb-21 06:33N 63°46' E 009°46'0 0.0
2017-Feb-21 05:33N 63°46' E 009°46'0 0.0
2017-Feb-21 04:33N 63°46' E 009°46'0 0.0
2017-Feb-21 03:33N 63°46' E 009°46'0 0.0
2017-Feb-21 02:33N 63°46' E 009°46'0 0.0
2017-Feb-21 01:33N 63°46' E 009°46'0 0.0
2017-Feb-21 00:33N 63°46' E 009°46'0 0.0
2017-Feb-20 23:33N 63°46' E 009°46'0 0.0
2017-Feb-20 22:33N 63°46' E 009°46'0 0.0
2017-Feb-20 21:33N 63°46' E 009°46'0 0.0
2017-Feb-20 20:33N 63°46' E 009°46'0 0.0
2017-Feb-20 19:33N 63°46' E 009°46'0 0.0
2017-Feb-20 18:33N 63°46' E 009°46'0 0.0
2017-Feb-20 17:33N 63°46' E 009°46'0 0.0
2017-Feb-20 16:33N 63°46' E 009°46'0 0.3
2017-Feb-20 15:33N 63°46' E 009°45'0 0.0
2017-Feb-20 14:33N 63°46' E 009°45'0 0.0
2017-Feb-20 13:33N 63°46' E 009°45'0 0.1
2017-Feb-20 12:33N 63°46' E 009°45'0 0.1
2017-Feb-20 11:33N 63°46' E 009°45'0 0.2
2017-Feb-20 10:33N 63°46' E 009°46'0 0.0
2017-Feb-20 09:32N 63°46' E 009°46'0 0.0
2017-Feb-20 08:33N 63°46' E 009°46'0 0.0
2017-Feb-20 07:33N 63°46' E 009°46'0 0.3
2017-Feb-20 06:33N 63°46' E 009°45'8 7.6
2017-Feb-20 05:33N 63°42' E 009°30'9 8.5
2017-Feb-20 04:33N 63°34' E 009°22'1010.0
2017-Feb-20 03:33N 63°29' E 009°02'9 9.2
2017-Feb-20 02:32N 63°26' E 008°43'9 9.2
2017-Feb-20 01:33N 63°22' E 008°25'9 9.4
2017-Feb-20 00:33N 63°16' E 008°08'6 5.7
2017-Feb-19 23:33N 63°15' E 007°56'0 0.0
2017-Feb-19 22:33N 63°15' E 007°56'2 2.1
2017-Feb-19 21:34N 63°15' E 007°51'0 0.0
2017-Feb-19 20:33N 63°15' E 007°51'3 3.1
2017-Feb-19 19:33N 63°14' E 007°58'8 7.6
2017-Feb-19 18:33N 63°18' E 008°13'8 7.6
2017-Feb-19 17:33N 63°23' E 008°26'8 7.6
2017-Feb-19 16:33N 63°26' E 008°41'7 7.2
2017-Feb-19 15:33N 63°28' E 008°56'7 6.7
2017-Feb-19 14:33N 63°31' E 009°10'7 7.2
2017-Feb-19 13:33N 63°37' E 009°19'1 1.4
2017-Feb-19 12:33N 63°38' E 009°20'0 0.0
2017-Feb-19 11:34N 63°38' E 009°20'0 0.0
2017-Feb-19 10:33N 63°38' E 009°20'0 0.0
2017-Feb-19 09:33N 63°38' E 009°20'0 0.0
2017-Feb-19 08:33N 63°38' E 009°20'1 1.3
2017-Feb-19 07:33N 63°38' E 009°23'6 6.3
2017-Feb-19 06:33N 63°43' E 009°31'8 7.7
2017-Feb-19 05:33N 63°50' E 009°38'7 6.9
2017-Feb-19 04:33N 63°54' E 009°51'1 1.0
2017-Feb-19 03:33N 63°53' E 009°52'0 0.0
2017-Feb-19 02:33N 63°53' E 009°52'0 0.0
2017-Feb-19 01:32N 63°53' E 009°52'0 0.0
2017-Feb-19 00:33N 63°53' E 009°52'0 0.0
2017-Feb-18 23:32N 63°53' E 009°52'0 0.0
2017-Feb-18 22:33N 63°53' E 009°52'0 0.0
2017-Feb-18 21:33N 63°53' E 009°52'0 0.0
2017-Feb-18 20:33N 63°53' E 009°52'0 0.0
2017-Feb-18 19:33N 63°53' E 009°52'0 0.0
2017-Feb-18 18:33N 63°53' E 009°52'0 0.0
2017-Feb-18 17:32N 63°53' E 009°52'0 0.0
2017-Feb-18 16:33N 63°53' E 009°52'0 0.0
2017-Feb-18 15:33N 63°53' E 009°52'0 0.0
2017-Feb-18 14:33N 63°53' E 009°52'0 0.0
2017-Feb-18 13:33N 63°53' E 009°52'0 0.0
2017-Feb-18 12:33N 63°53' E 009°52'6 6.2
2017-Feb-18 11:33N 63°51' E 009°39'7 7.2
2017-Feb-18 10:33N 63°44' E 009°35'3 2.9
2017-Feb-18 09:33N 63°42' E 009°31'8 7.9
2017-Feb-18 08:32N 63°35' E 009°24'9 9.2
2017-Feb-18 07:33N 63°30' E 009°06'9 9.0
2017-Feb-18 06:32N 63°27' E 008°47'9 9.1
2017-Feb-18 05:32N 63°23' E 008°29'9 9.1
2017-Feb-18 04:33N 63°18' E 008°13'8 7.9
2017-Feb-18 03:33N 63°15' E 007°56'5 4.9
2017-Feb-18 02:33N 63°16' E 008°07'7 6.8
2017-Feb-18 01:33N 63°21' E 008°18'2 1.5
2017-Feb-18 00:33N 63°22' E 008°15'2 1.9
2017-Feb-17 23:33N 63°24' E 008°13'5 5.3
2017-Feb-17 22:32N 63°29' E 008°13'7 7.2
2017-Feb-17 21:33N 63°36' E 008°17'6 5.8
2017-Feb-17 20:33N 63°36' E 008°30'0 0.4
2017-Feb-17 19:33N 63°36' E 008°31'1 1.2
2017-Feb-17 18:33N 63°36' E 008°29'0 0.2
2017-Feb-17 17:33N 63°37' E 008°30'5 5.3
2017-Feb-17 16:32N 63°40' E 008°39'8 7.8
2017-Feb-17 15:33N 63°43' E 008°55'9 8.5
2017-Feb-17 14:32N 63°51' E 009°03'8 8.4
2017-Feb-17 13:33N 63°58' E 009°09'2 1.6
2017-Feb-17 12:33N 63°60' E 009°07'2 2.2
2017-Feb-17 11:33N 63°59' E 009°12'8 7.6
2017-Feb-17 10:33N 64°01' E 009°29'8 7.8
2017-Feb-17 09:33N 64°03' E 009°46'8 7.5
2017-Feb-17 08:33N 64°08' E 009°59'1 1.5
2017-Feb-17 07:33N 64°09' E 010°01'2 2.5
2017-Feb-17 06:33N 64°10' E 010°06'3 3.3
2017-Feb-17 05:33N 64°07' E 010°02'4 3.9
2017-Feb-17 04:33N 64°05' E 009°55'4 3.9
2017-Feb-17 03:33N 64°02' E 009°48'4 3.6
2017-Feb-17 02:33N 63°59' E 009°48'3 3.0
2017-Feb-17 01:33N 63°57' E 009°54'4 3.9
2017-Feb-17 00:32N 63°53' E 009°52'0 0.0
2017-Feb-16 23:33N 63°53' E 009°52'0 0.0
2017-Feb-16 22:33N 63°53' E 009°52'0 0.0
2017-Feb-16 21:33N 63°53' E 009°52'1 1.2
2017-Feb-16 20:33N 63°54' E 009°50'8 8.0
2017-Feb-16 19:33N 63°49' E 009°35'4 4.5
2017-Feb-16 18:33N 63°45' E 009°42'2 1.8
2017-Feb-16 17:33N 63°46' E 009°46'0 0.0
2017-Feb-16 16:33N 63°46' E 009°46'0 0.0
2017-Feb-16 15:33N 63°46' E 009°46'0 0.0
2017-Feb-16 14:33N 63°46' E 009°46'0 0.0
2017-Feb-16 13:33N 63°46' E 009°46'0 0.0
2017-Feb-16 12:32N 63°46' E 009°46'0 0.0
2017-Feb-16 11:33N 63°46' E 009°46'0 0.0
2017-Feb-16 10:33N 63°46' E 009°46'0 0.4
2017-Feb-16 09:33N 63°46' E 009°45'5 5.0
2017-Feb-16 08:33N 63°48' E 009°34'8 8.1
2017-Feb-16 07:33N 63°54' E 009°46'8 8.1
2017-Feb-16 06:33N 64°02' E 009°48'8 8.1
2017-Feb-16 05:33N 64°07' E 010°03'8 8.0
2017-Feb-16 04:33N 64°14' E 010°14'8 7.5
2017-Feb-16 03:33N 64°19' E 010°26'7 7.4
2017-Feb-16 02:33N 64°27' E 010°27'7 7.0
2017-Feb-16 01:33N 64°32' E 010°36'8 7.7
2017-Feb-16 00:33N 64°39' E 010°46'8 7.8
2017-Feb-15 23:33N 64°45' E 010°59'8 7.7
2017-Feb-15 22:33N 64°50' E 011°11'7 6.5
2017-Feb-15 21:33N 64°55' E 011°22'8 7.5
2017-Feb-15 20:33N 64°59' E 011°36'9 8.5
2017-Feb-15 19:32N 65°06' E 011°48'9 9.4
2017-Feb-15 18:33N 65°15' E 011°56'8 7.8
2017-Feb-15 17:33N 65°23' E 011°60'8 7.8
2017-Feb-15 16:33N 65°30' E 012°01'9 8.9
2017-Feb-15 15:31N 65°38' E 012°13'9 8.8
2017-Feb-15 14:33N 65°46' E 012°19'9 8.4
2017-Feb-15 13:33N 65°55' E 012°22'6 5.5
2017-Feb-15 12:33N 65°57' E 012°10'4 4.2
2017-Feb-15 11:33N 66°01' E 012°14'1 1.0
2017-Feb-15 10:33N 66°00' E 012°16'0 0.0
2017-Feb-15 09:32N 66°00' E 012°16'4 3.9
2017-Feb-15 08:33N 66°02' E 012°07'7 6.9
2017-Feb-15 07:33N 65°55' E 012°15'9 9.2
2017-Feb-15 06:33N 66°01' E 012°33'9 9.0
2017-Feb-15 05:33N 66°08' E 012°47'9 8.7
2017-Feb-15 04:33N 66°16' E 012°55'9 8.8
2017-Feb-15 03:33N 66°25' E 012°59'8 7.9
2017-Feb-15 02:33N 66°33' E 013°00'8 8.3
2017-Feb-15 01:33N 66°40' E 013°08'9 8.5
2017-Feb-15 00:33N 66°48' E 013°15'8 8.2
2017-Feb-14 23:33N 66°55' E 013°28'7 7.2
2017-Feb-14 22:33N 67°00' E 013°40'9 8.8
2017-Feb-14 21:33N 67°06' E 013°58'9 8.7
2017-Feb-14 20:33N 67°13' E 014°10'6 6.2
2017-Feb-14 19:33N 67°17' E 014°23'0 0.0
2017-Feb-14 18:33N 67°17' E 014°23'0 0.0
2017-Feb-14 17:33N 67°17' E 014°23'0 0.0
2017-Feb-14 16:33N 67°17' E 014°23'0 0.0
2017-Feb-14 15:33N 67°17' E 014°23'0 0.0
2017-Feb-14 14:33N 67°17' E 014°23'0 0.4
2017-Feb-14 13:33N 67°17' E 014°22'4 3.6
2017-Feb-14 12:33N 67°21' E 014°26'5 4.8
2017-Feb-14 11:33N 67°25' E 014°32'8 7.9
2017-Feb-14 10:33N 67°32' E 014°43'9 8.5
2017-Feb-14 09:32N 67°36' E 015°02'8 7.7
2017-Feb-14 08:33N 67°32' E 015°18'1 0.5
2017-Feb-14 07:33N 67°32' E 015°17'5 5.2
2017-Feb-14 06:33N 67°37' E 015°21'1 0.8
2017-Feb-14 05:33N 67°36' E 015°22'3 3.0
2017-Feb-14 04:33N 67°38' E 015°16'3 3.0
2017-Feb-14 03:33N 67°37' E 015°08'4 4.5
2017-Feb-14 02:33N 67°37' E 014°56'5 4.5
2017-Feb-14 01:33N 67°38' E 014°44'5 5.3
2017-Feb-14 00:33N 67°40' E 014°32'7 7.2
2017-Feb-13 23:33N 67°47' E 014°31'7 6.5
2017-Feb-13 22:33N 67°52' E 014°43'7 7.4
2017-Feb-13 21:33N 67°55' E 015°01'6 6.3
2017-Feb-13 20:33N 67°55' E 015°18'6 5.7
2017-Feb-13 19:33N 68°01' E 015°20'0 0.0
2017-Feb-13 18:33N 68°01' E 015°20'1 1.1
2017-Feb-13 17:33N 68°01' E 015°17'9 8.7
2017-Feb-13 16:33N 68°07' E 015°01'8 8.2
2017-Feb-13 15:33N 68°15' E 014°57'8 8.3
2017-Feb-13 14:33N 68°23' E 015°05'7 6.8
2017-Feb-13 13:33N 68°29' E 015°13'7 6.7
2017-Feb-13 12:33N 68°36' E 015°14'  

Dump ship's entire track history